Time;durP1;ratioP1;P1;durP2;ratioP2;P2;SDS_P1;SDS_P2;PMS_P1;PMS_P2;Temp;Humidity;BMP_temperature;BMP_pressure;BME280_temperature;BME280_humidity;BME280_pressure;Samples;Min_cycle;Max_cycle;Signal;HPM_P1;HPM_P2
2022/06/07 00:02:30;;;;;;;26.45;22.27;;;;;;;12.27;100.00;101185.22;6500049;22;20434;-82
2022/06/07 00:05:03;;;;;;;31.48;23.58;;;;;;;12.31;100.00;101184.31;6500904;22;20023;-86
2022/06/07 00:07:44;;;;;;;30.60;24.10;;;;;;;12.35;100.00;101181.63;6501526;22;20008;-77
2022/06/07 00:10:16;;;;;;;26.10;23.33;;;;;;;12.35;100.00;101180.78;6500873;22;20004;-86
2022/06/07 00:12:47;;;;;;;28.93;22.17;;;;;;;12.38;100.00;101183.31;6500412;22;20015;-86
2022/06/07 00:15:19;;;;;;;27.23;24.40;;;;;;;12.38;100.00;101183.31;6500806;22;20004;-85
2022/06/07 00:17:50;;;;;;;28.47;25.20;;;;;;;12.42;100.00;101186.78;6499979;22;20000;-86
2022/06/07 00:20:21;;;;;;;28.10;24.83;;;;;;;12.44;100.00;101185.00;6502391;22;20032;-83
2022/06/07 00:22:53;;;;;;;31.03;25.40;;;;;;;12.42;100.00;101176.31;6504146;22;20004;-82
2022/06/07 00:25:25;;;;;;;29.83;24.93;;;;;;;12.43;100.00;101170.19;6504640;22;20450;-86
2022/06/07 00:27:57;;;;;;;30.35;26.58;;;;;;;12.40;100.00;101171.97;6503352;22;20011;-86
2022/06/07 00:30:30;;;;;;;33.13;26.40;;;;;;;12.42;100.00;101163.25;6502772;22;20008;-83
2022/06/07 00:33:01;;;;;;;29.48;26.38;;;;;;;12.37;100.00;101164.16;6499397;22;20018;-85
2022/06/07 00:35:33;;;;;;;32.67;26.10;;;;;;;12.39;100.00;101161.53;6499887;22;20079;-82
2022/06/07 00:38:05;;;;;;;31.47;26.23;;;;;;;12.43;100.00;101162.34;6500875;23;20008;-84
2022/06/07 00:40:37;;;;;;;28.20;23.83;;;;;;;12.41;100.00;101159.75;6499430;22;20008;-83
2022/06/07 00:43:09;;;;;;;27.73;23.88;;;;;;;12.38;100.00;101151.94;6499119;22;20066;-78
2022/06/07 00:45:41;;;;;;;24.75;22.25;;;;;;;12.37;100.00;101151.09;6499085;22;20414;-82
2022/06/07 00:48:12;;;;;;;26.37;22.60;;;;;;;12.35;100.00;101155.50;6499510;22;20050;-81
2022/06/07 00:50:54;;;;;;;25.87;22.07;;;;;;;12.31;100.00;101151.19;6499140;22;20023;-81
2022/06/07 00:53:31;;;;;;;23.67;21.27;;;;;;;12.23;100.00;101150.44;6499354;22;20365;-83
2022/06/07 00:56:05;;;;;;;23.27;20.75;;;;;;;12.18;100.00;101147.03;6499474;22;20075;-77
2022/06/07 00:58:39;;;;;;;26.08;22.35;;;;;;;12.15;100.00;101147.06;6500069;22;20038;-81
2022/06/07 01:01:10;;;;;;;21.10;18.75;;;;;;;12.20;100.00;101138.28;6502120;22;20004;-76
2022/06/07 01:03:41;;;;;;;22.33;19.97;;;;;;;12.27;100.00;101136.44;6504109;22;20016;-79
2022/06/07 01:11:52;;;;;;;21.17;19.23;;;;;;;12.27;100.00;101131.22;6499900;23;20023;-84
2022/06/07 01:14:24;;;;;;;28.77;19.77;;;;;;;12.31;100.00;101132.03;6500422;22;20474;-79
2022/06/07 01:16:56;;;;;;;23.60;18.47;;;;;;;12.29;100.00;101144.25;6500365;22;20018;-84
2022/06/07 01:19:27;;;;;;;19.77;16.77;;;;;;;12.29;100.00;101131.19;6499726;22;20004;-79
2022/06/07 01:21:58;;;;;;;18.73;16.80;;;;;;;12.24;100.00;101133.88;6500377;22;20015;-80
2022/06/07 01:24:30;;;;;;;19.97;15.53;;;;;;;12.22;100.00;101130.44;6500212;22;20056;-82
2022/06/07 01:27:02;;;;;;;19.83;16.27;;;;;;;12.21;100.00;101129.53;6499725;22;20016;-83
2022/06/07 01:29:34;;;;;;;17.25;14.52;;;;;;;12.23;100.00;101129.53;6497583;23;20008;-82
2022/06/07 01:32:06;;;;;;;16.30;14.33;;;;;;;12.19;99.93;101125.25;6499944;22;20915;-82
2022/06/07 01:34:43;;;;;;;17.95;15.73;;;;;;;12.18;100.00;101129.56;6499850;22;20058;-79
2022/06/07 01:37:18;;;;;;;20.23;14.55;;;;;;;12.17;100.00;101126.97;6499475;22;20004;-82
2022/06/07 01:42:39;;;;;;;18.95;15.05;;;;;;;12.13;100.00;101118.34;6499430;23;20091;-80
2022/06/07 01:45:11;;;;;;;16.00;14.30;;;;;;;12.08;100.00;101117.53;6499028;22;20027;-78
2022/06/07 01:47:43;;;;;;;17.93;13.83;;;;;;;12.01;100.00;101119.38;6499506;22;20016;-80
2022/06/07 01:50:15;;;;;;;;;;;;;;;12.01;100.00;101111.53;6498141;23;20046;-78
2022/06/07 01:52:46;;;;;;;16.55;13.77;;;;;;;11.99;99.99;101107.19;6499289;23;19911;-81
2022/06/07 01:55:17;;;;;;;16.67;12.83;;;;;;;11.97;99.50;101112.44;6499162;22;20012;-82
2022/06/07 01:57:49;;;;;;;16.63;13.83;;;;;;;12.00;99.39;101114.16;6499547;22;20019;-80
2022/06/07 02:00:20;;;;;;;19.90;13.37;;;;;;;12.00;99.04;101108.94;6498851;22;20057;-84
2022/06/07 02:02:52;;;;;;;13.33;11.43;;;;;;;11.99;98.52;101110.69;6498380;22;20011;-78
2022/06/07 02:05:23;;;;;;;15.10;12.30;;;;;;;11.95;98.25;101103.78;6498347;22;20007;-82
2022/06/07 02:07:54;;;;;;;18.87;11.80;;;;;;;11.97;97.85;101107.22;6498376;22;20000;-83
2022/06/07 02:10:26;;;;;;;13.70;10.33;;;;;;;11.99;97.73;101107.19;6499192;22;20314;-81
2022/06/07 02:12:58;;;;;;;13.87;10.23;;;;;;;11.97;97.15;101102.00;6498698;22;20093;-82
2022/06/07 02:15:29;;;;;;;14.18;9.85;;;;;;;11.97;96.36;101099.38;6497832;22;20008;-83
2022/06/07 02:18:01;;;;;;;14.43;10.07;;;;;;;11.96;96.44;101105.50;6498869;22;20007;-83
2022/06/07 02:20:33;;;;;;;13.47;9.23;;;;;;;11.94;96.14;101104.66;6498081;22;20012;-84
2022/06/07 02:23:05;;;;;;;12.23;9.02;;;;;;;11.93;95.77;101102.94;6497895;22;20401;-80
2022/06/07 02:25:52;;;;;;;11.43;9.00;;;;;;;11.92;95.89;101095.97;6497890;22;20449;-78
2022/06/07 02:28:28;;;;;;;10.57;8.40;;;;;;;11.90;95.59;101097.72;6497650;22;20007;-82
2022/06/07 02:31:00;;;;;;;13.13;7.72;;;;;;;11.93;94.93;101092.50;6497500;22;20007;-78
2022/06/07 02:33:34;;;;;;;16.38;8.20;;;;;;;11.93;94.44;101094.22;6497955;22;20015;-81
2022/06/07 02:36:08;;;;;;;12.95;7.47;;;;;;;11.96;94.58;101091.56;6497848;22;20492;-81
2022/06/07 02:38:40;;;;;;;11.90;7.10;;;;;;;11.93;94.16;101092.50;6497002;22;20014;-82
2022/06/07 02:41:16;;;;;;;10.05;7.45;;;;;;;11.92;93.71;101090.75;6494799;23;20905;-78
2022/06/07 02:43:48;;;;;;;8.75;6.40;;;;;;;11.92;93.11;101084.66;6497961;22;20398;-82
2022/06/07 02:46:19;;;;;;;8.33;6.00;;;;;;;11.89;93.38;101085.53;6497524;22;20012;-77
2022/06/07 02:48:51;;;;;;;12.47;5.70;;;;;;;11.91;93.33;101075.06;6497884;22;20008;-82
2022/06/07 02:51:22;;;;;;;13.07;6.17;;;;;;;11.91;92.67;101078.53;6496816;22;20032;-80
2022/06/07 02:53:56;;;;;;;9.30;6.10;;;;;;;11.91;92.44;101088.13;6497287;22;20051;-82
2022/06/07 02:56:27;;;;;;;10.18;5.63;;;;;;;11.89;92.38;101077.69;6497026;22;20548;-81
2022/06/07 02:58:59;;;;;;;8.60;5.50;;;;;;;11.89;91.87;101075.09;6496865;22;20000;-81
2022/06/07 03:01:31;;;;;;;9.97;6.13;;;;;;;11.90;91.51;101081.16;6497221;22;20012;-83
2022/06/07 03:04:03;;;;;;;11.20;5.65;;;;;;;11.89;91.25;101079.44;6497342;22;20378;-78
2022/06/07 03:06:34;;;;;;;7.90;4.90;;;;;;;11.90;91.33;101075.94;6497510;22;20042;-82
2022/06/07 03:09:06;;;;;;;10.20;5.50;;;;;;;11.88;91.23;101085.56;6496558;22;20113;-83
2022/06/07 03:11:37;;;;;;;9.43;5.40;;;;;;;11.87;91.55;101079.47;6496227;22;20069;-78
2022/06/07 03:14:10;;;;;;;7.70;4.83;;;;;;;11.87;91.81;101087.31;6496296;22;20050;-80
2022/06/07 03:16:42;;;;;;;;;;;;;;;11.92;92.21;101095.97;6497481;22;20008;-81
2022/06/07 03:19:13;;;;;;;12.32;6.65;;;;;;;11.89;91.36;101092.50;6496756;23;19934;-78
2022/06/07 03:21:44;;;;;;;12.07;5.20;;;;;;;11.88;90.86;101103.84;6497003;22;20016;-82
2022/06/07 03:24:16;;;;;;;8.77;5.57;;;;;;;11.89;90.60;101098.59;6496419;22;20012;-80
2022/06/07 03:26:47;;;;;;;6.57;5.00;;;;;;;11.90;90.55;101102.94;6496979;22;20077;-79
2022/06/07 03:29:19;;;;;;;5.83;4.80;;;;;;;11.88;90.40;101102.06;6494755;23;20000;-82
2022/06/07 03:31:50;;;;;;;10.20;5.13;;;;;;;11.84;90.82;101106.47;6497034;22;20008;-77
2022/06/07 03:34:22;;;;;;;8.30;4.90;;;;;;;11.81;90.94;101098.69;6496742;22;20012;-80
2022/06/07 03:36:53;;;;;;;7.30;4.33;;;;;;;11.81;90.50;101100.44;6520340;22;20058;-80
2022/06/07 03:39:25;;;;;;;9.50;5.37;;;;;;;11.79;91.09;101107.44;6496317;22;20716;-79
2022/06/07 03:41:56;;;;;;;7.28;5.03;;;;;;;11.77;90.07;101099.63;6497233;23;20011;-85
2022/06/07 03:44:28;;;;;;;9.00;5.33;;;;;;;11.82;90.16;101110.03;6497592;23;20008;-82
2022/06/07 03:46:59;;;;;;;11.50;5.97;;;;;;;11.82;90.36;101108.25;6497566;22;20008;-80
2022/06/07 03:49:31;;;;;;;9.27;5.07;;;;;;;11.81;90.13;101109.13;6494917;23;20012;-81
2022/06/07 03:52:03;;;;;;;9.90;5.05;;;;;;;11.86;90.08;101119.53;6496781;22;20011;-81
2022/06/07 03:54:34;;;;;;;8.73;4.93;;;;;;;11.87;89.40;101116.03;6497094;22;20331;-83
2022/06/07 03:57:08;;;;;;;10.43;5.20;;;;;;;11.84;89.76;101114.31;6496626;22;20452;-83
2022/06/07 03:59:39;;;;;;;8.00;5.53;;;;;;;11.85;89.86;101118.69;6496156;22;20012;-81
2022/06/07 04:02:11;;;;;;;9.37;4.83;;;;;;;11.85;90.05;101115.22;6496922;22;20075;-80
2022/06/07 04:04:42;;;;;;;8.87;5.10;;;;;;;11.88;90.50;101125.59;6496961;22;20012;-82
2022/06/07 04:10:04;;;;;;;8.38;5.13;;;;;;;11.86;89.76;101127.38;6499690;23;20043;-81
2022/06/07 04:12:35;;;;;;;10.03;5.17;;;;;;;11.87;90.41;101123.88;6521466;22;20367;-79
2022/06/07 04:15:07;;;;;;;7.93;5.30;;;;;;;11.85;90.10;101128.28;6498510;22;20759;-80
2022/06/07 04:17:38;;;;;;;12.30;5.63;;;;;;;11.85;89.76;101116.06;6498474;22;20077;-78
2022/06/07 04:20:10;;;;;;;8.07;5.60;;;;;;;11.87;90.02;101116.03;6498268;22;20000;-78
2022/06/07 04:22:42;;;;;;;8.07;5.72;;;;;;;11.89;90.09;101124.72;6498637;22;20485;-78
2022/06/07 04:25:13;;;;;;;11.10;5.73;;;;;;;11.95;89.81;101126.44;6498613;22;20036;-78
2022/06/07 04:27:45;;;;;;;10.47;5.17;;;;;;;11.95;89.71;101124.66;6498418;22;20066;-80
2022/06/07 04:30:16;;;;;;;9.17;5.67;;;;;;;12.00;90.20;101128.09;6497837;22;20075;-78
2022/06/07 04:32:47;;;;;;;12.83;6.10;;;;;;;11.98;89.76;101119.41;6498204;22;20008;-79
2022/06/07 04:35:19;;;;;;;10.23;5.67;;;;;;;12.01;89.03;101122.00;6498109;22;20664;-80
2022/06/07 04:37:51;;;;;;;12.17;5.83;;;;;;;12.05;89.44;101128.03;6496801;23;20008;-76
2022/06/07 04:40:23;;;;;;;;;;;;;;;12.17;89.65;101124.38;6498973;23;20706;-79
2022/06/07 04:42:54;;;;;;;10.60;6.45;;;;;;;12.15;89.26;101129.63;6497608;23;19918;-80
2022/06/07 04:45:25;;;;;;;9.70;6.00;;;;;;;12.20;89.00;101124.34;6497706;22;20075;-80
2022/06/07 04:47:57;;;;;;;8.53;5.80;;;;;;;12.22;88.79;101127.81;6497818;22;20043;-80
2022/06/07 04:50:28;;;;;;;9.97;6.57;;;;;;;12.25;88.49;101132.09;6498757;22;20508;-80
2022/06/07 04:53:00;;;;;;;10.37;5.70;;;;;;;12.28;88.29;101130.31;6497794;22;20008;-79
2022/06/07 04:55:31;;;;;;;11.13;6.87;;;;;;;12.35;88.47;101129.34;6500101;22;20503;-79
2022/06/07 04:58:02;;;;;;;10.60;6.13;;;;;;;12.34;88.63;101132.84;6497723;22;20015;-78
2022/06/07 05:00:34;;;;;;;10.50;6.00;;;;;;;12.38;88.57;101133.66;6498438;22;20504;-79
2022/06/07 05:03:05;;;;;;;13.00;6.60;;;;;;;12.33;88.45;101136.38;6497878;23;19997;-79
2022/06/07 05:05:36;;;;;;;10.87;7.03;;;;;;;12.29;88.53;101132.06;6498936;22;20012;-79
2022/06/07 05:08:08;;;;;;;13.73;7.60;;;;;;;12.26;88.24;101139.94;6498570;22;20074;-79
2022/06/07 05:10:40;;;;;;;12.27;7.37;;;;;;;12.28;89.25;101140.75;6498129;22;20008;-79
2022/06/07 05:13:11;;;;;;;12.43;7.45;;;;;;;12.24;88.95;101136.47;6497913;22;20016;-78
2022/06/07 05:15:42;;;;;;;12.23;7.50;;;;;;;12.27;88.72;101136.44;6497828;22;20275;-80
2022/06/07 05:18:15;;;;;;;11.83;7.60;;;;;;;12.32;88.36;101154.69;6499578;22;20106;-80
2022/06/07 05:20:46;;;;;;;9.10;6.47;;;;;;;12.27;87.74;101146.00;6521366;22;20130;-81
2022/06/07 05:23:18;;;;;;;12.37;7.50;;;;;;;12.40;88.27;101155.44;6498316;22;20035;-79
2022/06/07 05:26:05;;;;;;;10.27;7.07;;;;;;;12.48;88.15;101163.16;6498224;22;20012;-82
2022/06/07 05:28:40;;;;;;;11.27;7.00;;;;;;;12.49;87.75;101146.56;6498649;22;20062;-78
2022/06/07 05:31:11;;;;;;;12.75;7.13;;;;;;;12.53;87.48;101153.50;6497868;22;20031;-77
2022/06/07 05:33:43;;;;;;;10.90;6.90;;;;;;;12.63;87.59;101155.06;6498620;22;20014;-81
2022/06/07 05:36:15;;;;;;;15.97;7.57;;;;;;;12.63;87.49;101159.47;6499532;22;20353;-80
2022/06/07 05:38:47;;;;;;;10.52;7.22;;;;;;;12.65;87.20;101149.81;6498010;22;20322;-81
2022/06/07 05:41:22;;;;;;;11.38;8.02;;;;;;;12.79;88.37;101149.63;6498753;22;20330;-80
2022/06/07 05:43:53;;;;;;;10.52;7.57;;;;;;;12.89;86.85;101167.75;6500080;22;20079;-83
2022/06/07 05:46:25;;;;;;;10.87;7.50;;;;;;;12.84;86.51;101151.25;6506118;22;20032;-81
2022/06/07 05:48:56;;;;;;;11.13;7.68;;;;;;;12.87;87.21;101151.22;6501189;22;20411;-79
2022/06/07 05:51:28;;;;;;;15.93;8.00;;;;;;;12.93;87.74;101158.09;6499174;22;20000;-81
2022/06/07 05:53:59;;;;;;;14.73;8.30;;;;;;;13.02;88.37;101157.94;6498815;22;20085;-81
2022/06/07 05:56:31;;;;;;;13.37;7.70;;;;;;;13.02;87.74;101159.69;6498023;22;20020;-80
2022/06/07 05:59:05;;;;;;;14.37;8.33;;;;;;;12.98;87.09;101158.03;6497997;22;20422;-83
2022/06/07 06:01:36;;;;;;;14.10;8.57;;;;;;;12.94;87.17;101159.81;6497535;22;20028;-79
2022/06/07 06:04:08;;;;;;;15.03;9.50;;;;;;;12.92;87.42;101158.97;6498186;22;20008;-79
2022/06/07 06:06:40;;;;;;;12.52;9.23;;;;;;;12.89;87.92;101164.25;6497512;22;20452;-79
2022/06/07 06:12:01;;;;;;;15.77;10.25;;;;;;;13.04;88.70;101156.19;6497038;23;20015;-80
2022/06/07 06:14:33;;;;;;;15.07;9.87;;;;;;;13.17;87.69;101155.94;6496936;22;20000;-79
2022/06/07 06:17:06;;;;;;;16.30;8.93;;;;;;;13.44;87.93;101162.47;6497353;22;20032;-79
2022/06/07 06:19:37;;;;;;;17.73;10.07;;;;;;;13.53;87.11;101157.06;6520799;22;20354;-81
2022/06/07 06:22:09;;;;;;;15.97;9.90;;;;;;;13.43;86.86;101159.00;6498179;22;20441;-78
2022/06/07 06:24:40;;;;;;;15.33;10.00;;;;;;;13.53;86.73;101161.44;6498102;23;20014;-81
2022/06/07 06:27:12;;;;;;;14.73;8.97;;;;;;;13.53;86.12;101156.22;6497338;22;20013;-82
2022/06/07 06:29:43;;;;;;;13.97;8.90;;;;;;;13.72;86.03;101154.94;6496984;22;20004;-79
2022/06/07 06:32:15;;;;;;;13.90;9.83;;;;;;;13.94;86.29;101147.53;6496828;22;20011;-80
2022/06/07 06:34:46;;;;;;;21.90;10.47;;;;;;;14.09;84.14;101153.31;6497465;22;20306;-80
2022/06/07 06:37:18;;;;;;;9.47;7.97;;;;;;;14.27;84.02;101155.53;6498169;23;20071;-80
2022/06/07 06:39:49;;;;;;;11.05;9.00;;;;;;;14.21;83.61;101159.16;6497590;22;20060;-80
2022/06/07 06:42:21;;;;;;;19.13;9.27;;;;;;;14.38;83.97;101155.31;6496804;22;20007;-80
2022/06/07 06:44:52;;;;;;;13.60;10.03;;;;;;;14.38;83.91;101150.06;6497492;22;20473;-79
2022/06/07 06:47:24;;;;;;;10.33;8.70;;;;;;;14.44;83.93;101146.41;6497275;22;20023;-80
2022/06/07 06:49:55;;;;;;;15.57;8.23;;;;;;;14.39;84.00;101155.28;6496969;22;20008;-80
2022/06/07 06:52:26;;;;;;;16.33;8.83;;;;;;;14.40;83.79;101145.63;6498391;22;20009;-80
2022/06/07 06:54:58;;;;;;;12.97;9.57;;;;;;;14.31;83.76;101157.22;6497322;22;20011;-80
2022/06/07 06:57:29;;;;;;;13.83;8.63;;;;;;;14.31;83.20;101156.31;6498460;22;20090;-78
2022/06/07 07:00:03;;;;;;;14.00;9.47;;;;;;;14.45;83.32;101166.53;6499685;23;20000;-80
2022/06/07 07:02:35;;;;;;;11.82;9.07;;;;;;;14.55;84.04;101168.03;6498781;23;20011;-79
2022/06/07 07:05:07;;;;;;;12.93;9.43;;;;;;;14.84;83.27;101175.22;6499104;23;20008;-78
2022/06/07 07:07:39;;;;;;;14.85;10.35;;;;;;;15.00;81.16;101177.50;6499343;23;20004;-79
2022/06/07 07:10:11;;;;;;;16.15;10.65;;;;;;;15.05;81.77;101178.22;6498487;23;20008;-79
2022/06/07 07:12:42;;;;;;;18.27;10.03;;;;;;;15.09;81.20;101166.75;6498801;23;20091;-78
2022/06/07 07:15:14;;;;;;;17.60;11.27;;;;;;;15.25;80.91;101175.13;6498097;23;20062;-82
2022/06/07 07:17:47;;;;;;;16.20;10.43;;;;;;;15.23;80.98;101172.53;6496988;23;20079;-78
2022/06/07 07:20:18;;;;;;;13.15;10.73;;;;;;;15.25;81.11;101181.22;6496886;23;20008;-79
2022/06/07 07:22:50;;;;;;;15.03;10.43;;;;;;;15.11;80.81;101167.59;6497354;23;20004;-79
2022/06/07 07:25:21;;;;;;;16.13;12.10;;;;;;;15.17;81.70;101175.31;6498864;23;20031;-81
2022/06/07 07:27:53;;;;;;;18.03;10.67;;;;;;;15.37;81.14;101166.03;6500432;23;20012;-79
2022/06/07 07:30:24;;;;;;;17.40;12.68;;;;;;;15.59;80.23;101166.31;6505889;23;20011;-78
2022/06/07 07:32:56;;;;;;;16.57;11.97;;;;;;;15.85;79.62;101166.47;6506656;23;20012;-80
2022/06/07 07:35:28;;;;;;;12.05;10.70;;;;;;;16.18;79.31;101160.25;6508980;23;20075;-80
2022/06/07 07:38:00;;;;;;;16.17;11.43;;;;;;;16.63;78.07;101158.88;6504358;23;20011;-80
2022/06/07 07:40:31;;;;;;;16.23;12.20;;;;;;;16.55;77.27;101160.00;6504148;23;20015;-80
2022/06/07 07:43:05;;;;;;;14.70;12.23;;;;;;;16.67;76.24;101161.38;6507923;23;20008;-80
2022/06/07 07:45:36;;;;;;;18.25;11.93;;;;;;;16.57;76.71;101157.31;6508088;23;20000;-79
2022/06/07 07:48:08;;;;;;;15.35;11.68;;;;;;;16.48;76.39;101162.88;6507329;23;20004;-78
2022/06/07 07:50:39;;;;;;;14.07;11.17;;;;;;;16.36;76.38;101158.88;6506461;23;20015;-82
2022/06/07 07:53:12;;;;;;;15.20;11.27;;;;;;;16.39;76.66;101162.25;6501316;23;20284;-80
2022/06/07 07:55:45;;;;;;;14.10;10.23;;;;;;;16.32;77.71;101160.69;6497463;23;20075;-79
2022/06/07 07:58:20;;;;;;;15.65;10.63;;;;;;;16.35;76.78;101165.88;6496431;23;20063;-81
2022/06/07 08:00:51;;;;;;;13.85;11.32;;;;;;;16.13;76.83;101159.53;6498880;23;20051;-80
2022/06/07 08:03:23;;;;;;;14.80;12.07;;;;;;;16.48;76.32;101163.72;6495942;23;20020;-79
2022/06/07 08:05:54;;;;;;;16.87;12.47;;;;;;;16.72;74.00;101159.44;6497125;23;20334;-77
2022/06/07 08:08:25;;;;;;;14.53;11.10;;;;;;;17.06;74.72;101163.63;6496409;23;20004;-80
2022/06/07 08:10:57;;;;;;;11.57;10.40;;;;;;;17.36;73.04;101170.56;6496939;23;20062;-79
2022/06/07 08:13:29;;;;;;;17.70;10.43;;;;;;;17.31;73.18;101168.06;6497187;23;20016;-79
2022/06/07 08:16:00;;;;;;;13.15;10.82;;;;;;;17.60;72.70;101160.91;6496423;23;20004;-79
2022/06/07 08:18:32;;;;;;;13.77;10.63;;;;;;;17.84;70.52;101162.63;6497186;23;20015;-79
2022/06/07 08:21:07;;;;;;;13.95;10.98;;;;;;;17.85;70.44;101158.22;6496701;23;20015;-78
2022/06/07 08:23:39;;;;;;;15.82;12.73;;;;;;;17.78;69.46;101167.28;6497155;23;20303;-79
2022/06/07 08:26:11;;;;;;;12.55;11.25;;;;;;;18.12;68.75;101151.06;6499870;23;20004;-81
2022/06/07 08:28:44;;;;;;;11.47;9.47;;;;;;;18.28;68.37;101155.78;6498190;23;20012;-80
2022/06/07 08:31:22;;;;;;;15.63;12.75;;;;;;;18.30;67.91;101152.13;6470549;23;20054;-80
2022/06/07 08:39:37;;;;;;;18.35;11.88;;;;;;;17.94;68.89;101154.44;6497611;23;20016;-80
2022/06/07 08:42:37;;;;;;;14.38;10.20;;;;;;;18.12;68.52;101153.72;6499732;23;20563;-81
2022/06/07 08:45:21;;;;;;;13.43;11.68;;;;;;;18.01;69.08;101153.25;6496575;23;20656;-81
2022/06/07 08:47:58;;;;;;;12.63;11.07;;;;;;;17.77;68.25;101157.63;6496126;23;20536;-82
2022/06/07 08:50:38;;;;;;;12.20;10.90;;;;;;;17.64;69.50;101152.81;6497883;23;20069;-81
2022/06/07 08:53:14;;;;;;;13.02;9.80;;;;;;;17.84;69.05;101154.72;6498111;23;20091;-81
2022/06/07 08:55:58;;;;;;;11.93;10.43;;;;;;;18.24;68.17;101144.47;6496982;23;20057;-80
2022/06/07 08:58:34;;;;;;;14.57;9.63;;;;;;;18.71;66.47;101154.06;6470220;23;20506;-80
2022/06/07 09:01:23;;;;;;;11.88;8.70;;;;;;;18.61;63.91;101150.91;6467957;23;20008;-80
2022/06/07 09:04:05;;;;;;;12.52;9.25;;;;;;;18.57;64.54;101150.16;6467452;23;20620;-79
2022/06/07 09:06:45;;;;;;;14.63;11.55;;;;;;;18.35;64.72;101147.56;6468212;23;20009;-79
2022/06/07 09:09:19;;;;;;;13.48;10.05;;;;;;;18.78;64.84;101145.78;6468046;23;20024;-80
2022/06/07 09:12:09;;;;;;;12.32;8.30;;;;;;;18.73;64.46;101146.91;6441260;23;20465;-81
2022/06/07 09:15:09;;;;;;;11.32;7.60;;;;;;;18.94;62.09;101140.75;6469175;23;20008;-80
2022/06/07 09:17:51;;;;;;;10.52;8.32;;;;;;;18.94;62.61;101142.56;6467835;23;20080;-81
2022/06/07 09:20:38;;;;;;;9.70;7.13;;;;;;;19.25;62.12;101150.00;6467781;23;20018;-80
2022/06/07 09:23:18;;;;;;;11.82;7.97;;;;;;;19.15;61.07;101153.16;6467429;23;20411;-78
2022/06/07 09:25:52;;;;;;;9.98;6.07;;;;;;;19.15;60.59;101154.00;6468603;23;20084;-80
2022/06/07 09:28:27;;;;;;;8.48;5.30;;;;;;;19.10;59.45;101143.63;6467579;23;20063;-81
2022/06/07 09:31:08;;;;;;;9.63;4.57;;;;;;;19.57;59.19;101139.81;6468458;23;19996;-83
2022/06/07 09:33:56;;;;;;;6.57;4.40;;;;;;;19.76;58.29;101142.53;6468994;23;20059;-84
2022/06/07 09:36:30;;;;;;;8.30;4.72;;;;;;;20.00;57.53;101143.19;6468877;23;20418;-84
2022/06/07 09:39:06;;;;;;;7.80;5.20;;;;;;;19.78;57.84;101127.44;6468242;23;20079;-82
2022/06/07 09:41:43;;;;;;;8.50;5.90;;;;;;;19.67;58.05;101137.63;6468938;23;20004;-79
2022/06/07 09:44:35;;;;;;;12.65;6.70;;;;;;;19.57;58.70;101139.81;6467814;23;20015;-82
2022/06/07 09:47:16;;;;;;;10.63;5.82;;;;;;;19.31;58.43;101146.25;6468511;23;20000;-81
2022/06/07 09:49:51;;;;;;;9.13;6.20;;;;;;;19.08;60.04;101140.19;6468664;23;20755;-81
2022/06/07 09:55:35;;;;;;;11.63;6.22;;;;;;;19.42;60.49;101129.94;6421825;22;20029;-88
2022/06/07 09:58:25;;;;;;;7.57;5.55;;;;;;;19.78;60.18;101131.88;6469531;23;20952;-83
2022/06/07 10:01:15;;;;;;;9.57;4.90;;;;;;;20.19;59.59;101131.75;6441327;23;20049;-82
2022/06/07 10:04:00;;;;;;;11.88;4.30;;;;;;;20.02;56.56;101130.72;6467411;23;20012;-80
2022/06/07 10:06:43;;;;;;;5.80;3.88;;;;;;;19.89;57.00;101128.75;6468302;23;20000;-82
2022/06/07 10:09:44;;;;;;;6.93;3.75;;;;;;;19.97;57.58;101121.31;6466801;23;20005;-81
2022/06/07 10:12:39;;;;;;;5.00;3.25;;;;;;;19.71;58.66;101125.13;6467115;23;20012;-82
2022/06/07 10:15:40;;;;;;;6.10;3.85;;;;;;;19.70;58.01;101123.41;6466789;23;20066;-83
2022/06/07 10:18:24;;;;;;;7.32;3.60;;;;;;;20.56;55.68;101119.38;6467094;23;20028;-82
2022/06/07 10:21:20;;;;;;;10.98;3.70;;;;;;;21.59;50.88;101132.69;6466343;23;20015;-81
2022/06/07 10:24:21;;;;;;;7.75;4.03;;;;;;;22.04;50.24;101111.66;6467571;23;20087;-83
2022/06/07 10:26:58;;;;;;;5.65;2.70;;;;;;;22.71;48.22;101111.44;6466948;23;20032;-81
2022/06/07 10:29:50;;;;;;;5.28;3.25;;;;;;;23.25;49.21;101122.44;6467127;23;20016;-82
2022/06/07 10:32:31;;;;;;;5.15;3.53;;;;;;;22.00;47.35;101113.63;6466821;23;20418;-77
2022/06/07 10:35:04;;;;;;;7.22;3.75;;;;;;;20.93;50.12;101120.22;6468681;23;20013;-81
2022/06/07 10:37:51;;;;;;;9.65;4.00;;;;;;;20.78;53.16;101121.81;6469325;23;20004;-81
2022/06/07 10:40:37;;;;;;;6.68;3.58;;;;;;;20.22;54.24;101116.56;6467725;23;20009;-83
2022/06/07 10:43:21;;;;;;;8.10;3.72;;;;;;;19.99;55.79;101116.78;6467850;23;20565;-82
2022/06/07 10:45:57;;;;;;;7.85;3.13;;;;;;;20.03;56.26;101115.72;6415909;23;20008;-80
2022/06/07 10:48:49;;;;;;;6.30;3.00;;;;;;;20.36;55.29;101117.69;6466535;23;20062;-82
2022/06/07 10:54:27;;;;;;;7.22;3.58;;;;;;;21.14;52.99;101112.94;6465437;23;20087;-83
2022/06/07 10:57:12;;;;;;;6.75;3.38;;;;;;;22.40;53.06;101102.59;6491062;23;20385;-81
2022/06/07 10:59:44;;;;;;;6.22;2.92;;;;;;;23.09;48.75;101101.22;6498223;23;20008;-84
2022/06/07 11:02:26;;;;;;;7.43;3.27;;;;;;;22.31;48.56;101103.13;6498015;23;20038;-77
2022/06/07 11:10:54;;;;;;;4.78;2.28;;;;;;;21.64;50.17;101101.47;6497961;23;20020;-81
2022/06/07 11:13:58;;;;;;;5.30;2.73;;;;;;;22.99;47.54;101108.03;6498405;23;20091;-84
2022/06/07 11:16:33;;;;;;;7.55;2.63;;;;;;;23.76;43.72;101099.78;6339868;23;20014;-83
2022/06/07 11:19:05;;;;;;;6.80;2.97;;;;;;;22.93;43.77;101100.41;6340285;23;20520;-82
2022/06/07 11:21:40;;;;;;;3.90;2.00;;;;;;;23.04;44.79;101099.75;6339615;23;20053;-83
2022/06/07 11:24:14;;;;;;;3.90;2.20;;;;;;;22.81;44.94;101096.66;6339937;23;20479;-83
2022/06/07 11:26:51;;;;;;;6.88;2.63;;;;;;;23.36;44.33;101102.28;6339174;23;20006;-83
2022/06/07 11:29:27;;;;;;;7.05;2.30;;;;;;;22.95;44.78;101102.00;6314381;23;20089;-78
2022/06/07 11:32:03;;;;;;;5.38;2.45;;;;;;;23.64;45.22;101096.97;6339050;23;20121;-83
2022/06/07 11:34:36;;;;;;;10.18;2.58;;;;;;;24.22;42.84;101096.88;6343542;23;20433;-82
2022/06/07 11:37:08;;;;;;;4.70;2.38;;;;;;;23.41;44.07;101092.22;6339873;23;20033;-80
2022/06/07 11:39:39;;;;;;;3.57;1.80;;;;;;;23.13;45.32;101101.88;6339245;23;20074;-82
2022/06/07 11:42:13;;;;;;;5.47;1.83;;;;;;;22.49;47.55;101109.19;6340341;23;20013;-84
2022/06/07 11:44:50;;;;;;;9.23;2.78;;;;;;;22.36;46.73;101101.94;6341232;23;20041;-82
2022/06/07 11:47:26;;;;;;;4.97;1.83;;;;;;;22.37;48.96;101100.13;6340121;23;20080;-80
2022/06/07 11:50:00;;;;;;;3.47;2.03;;;;;;;22.43;47.01;101096.25;6340225;23;20021;-82
2022/06/07 11:52:34;;;;;;;3.70;2.10;;;;;;;22.98;46.26;101108.13;6355070;23;20481;-83
2022/06/07 11:55:15;;;;;;;4.97;1.90;;;;;;;23.04;46.68;101089.97;6499544;23;20004;-81
2022/06/07 11:57:53;;;;;;;5.32;2.30;;;;;;;22.64;45.93;101091.50;6498195;23;20011;-82
2022/06/07 12:00:30;;;;;;;5.07;2.15;;;;;;;22.70;46.89;101107.06;6501008;23;20011;-81
2022/06/07 12:03:01;;;;;;;4.22;1.98;;;;;;;22.84;48.45;101092.97;6498048;23;20016;-80
2022/06/07 12:05:35;;;;;;;3.60;1.73;;;;;;;24.03;46.14;101091.88;6499585;23;20008;-80
2022/06/07 12:08:20;;;;;;;4.00;1.70;;;;;;;24.94;41.76;101094.75;6500154;23;20042;-84
2022/06/07 12:11:07;;;;;;;2.58;1.60;;;;;;;26.50;40.61;101089.00;6498605;23;20039;-83
2022/06/07 12:13:49;;;;;;;5.00;2.20;;;;;;;26.71;38.16;101080.34;6497938;23;20008;-82
2022/06/07 12:16:41;;;;;;;3.75;1.90;;;;;;;26.64;38.32;101092.44;6496630;23;20334;-85
2022/06/07 12:19:20;;;;;;;4.93;2.13;;;;;;;26.88;39.69;101079.88;6496814;23;20004;-80
2022/06/07 12:22:06;;;;;;;3.80;2.00;;;;;;;26.38;39.24;101088.09;6498082;23;20464;-83
2022/06/07 12:24:59;;;;;;;3.55;2.22;;;;;;;24.64;42.13;101086.16;6498916;23;20566;-80